Al Andalus Express — 5BMH4 — position and weather

sailwx.info

Track history (hours):
 
Tides and Currents Weather Stations Pressure Air Temp Water Temp Dewpoint Dewpoint Depression Visibility Wind Speed Wind Dir Waves Ship Positions

Al Andalus Express

Last reported at 2018-May-24 14:00 UTC. Time now 2018-May-24 14:07 UTC.
Position N 28°02' W 014°43'.

Length 160 m; draft 5.2 m.

Type: Ship (hazmat cat D). MMSI: 209011000.

Date/timePositionNaut miles runAvg speedWind from/ knotsBaromVisibWave heightAir tempDewpointWater temp
2018-May-24 14:00N 28°02' W 014°43'816.6
2018-May-24 13:30N 28°00' W 014°34'25 2.4
2018-May-24 03:11N 28°08' W 014°07'1616.0
2018-May-24 02:13N 28°01' W 014°23'416.6
2018-May-24 01:58N 28°01' W 014°27'816.9
2018-May-24 01:30N 28°01' W 014°36'816.7
2018-May-24 01:00N 28°02' W 014°46'816.7
2018-May-24 00:30N 28°04' W 014°55'816.5
2018-May-24 00:00N 28°05' W 015°04'816.4
2018-May-23 23:30N 28°07' W 015°13'816.5
2018-May-23 23:00N 28°09' W 015°22'2 2.8
2018-May-23 22:23N 28°10' W 015°24'0 0.0
2018-May-23 21:59N 28°10' W 015°24'0 0.0
2018-May-23 21:30N 28°10' W 015°24'0 0.0
2018-May-23 21:00N 28°10' W 015°24'0 0.0
2018-May-23 20:30N 28°10' W 015°24'0 0.0
2018-May-23 20:00N 28°10' W 015°24'0 0.0
2018-May-23 19:30N 28°10' W 015°24'0 0.0
2018-May-23 19:00N 28°10' W 015°24'0 0.0
2018-May-23 18:30N 28°10' W 015°24'0 0.0
2018-May-23 18:00N 28°10' W 015°24'0 0.0
2018-May-23 17:30N 28°10' W 015°24'0 0.0
2018-May-23 17:00N 28°10' W 015°24'0 0.0
2018-May-23 16:30N 28°10' W 015°24'4 8.8
2018-May-23 16:00N 28°08' W 015°20'816.3
2018-May-23 15:30N 28°06' W 015°11'816.7
2018-May-23 15:00N 28°04' W 015°01'816.9
2018-May-23 14:30N 28°03' W 014°52'917.1
2018-May-23 14:00N 28°02' W 014°42'816.9
2018-May-23 13:30N 28°00' W 014°33'917.1
2018-May-23 12:59N 28°01' W 014°23'1017.4
2018-May-23 12:24N 28°04' W 014°12'717.2
2018-May-23 12:00N 28°07' W 014°05'35 3.2
2018-May-23 01:08N 28°02' W 014°45'216.3
2018-May-23 01:00N 28°02' W 014°47'816.7
2018-May-23 00:30N 28°04' W 014°56'816.5
2018-May-23 00:00N 28°05' W 015°06'816.6
2018-May-22 23:30N 28°07' W 015°15'815.7
2018-May-22 23:01N 28°09' W 015°23'1 1.9
2018-May-22 22:30N 28°10' W 015°24'0 0.0
2018-May-22 21:57N 28°10' W 015°24'0 0.0
2018-May-22 21:28N 28°10' W 015°24'0 0.0
2018-May-22 20:58N 28°10' W 015°24'0 0.0
2018-May-22 20:28N 28°10' W 015°24'0 0.0
2018-May-22 19:58N 28°10' W 015°24'0 0.0
2018-May-22 19:28N 28°10' W 015°24'0 0.0
2018-May-22 18:58N 28°10' W 015°24'0 0.0
2018-May-22 18:19N 28°10' W 015°24'0 0.0
2018-May-22 17:58N 28°10' W 015°24'0 0.0
2018-May-22 17:28N 28°10' W 015°24'0 0.0
2018-May-22 16:46N 28°10' W 015°24'0 0.1
2018-May-22 16:30N 28°10' W 015°24'3 5.6
2018-May-22 16:00N 28°08' W 015°22'816.9
2018-May-22 15:30N 28°06' W 015°12'917.2
2018-May-22 15:00N 28°04' W 015°03'917.4
2018-May-22 14:30N 28°03' W 014°53'917.6
2018-May-22 14:00N 28°02' W 014°43'5 0.4
2018-May-22 02:09N 28°01' W 014°37'316.6
2018-May-22 01:59N 28°02' W 014°40'816.6
2018-May-22 01:30N 28°03' W 014°49'816.3
2018-May-22 01:00N 28°05' W 014°58'510.1
2018-May-22 00:30N 28°06' W 015°04'5 9.7
2018-May-22 00:00N 28°06' W 015°09'715.0
2018-May-21 23:31N 28°08' W 015°17'610.6
2018-May-21 22:56N 28°10' W 015°24'0 0.0
2018-May-21 22:26N 28°10' W 015°24'0 0.0
2018-May-21 21:56N 28°10' W 015°24'0 0.0
2018-May-21 21:26N 28°10' W 015°24'0 0.0
2018-May-21 20:59N 28°10' W 015°24'0 0.0
2018-May-21 20:29N 28°10' W 015°24'0 0.0
2018-May-21 19:59N 28°10' W 015°24'0 0.0
2018-May-21 19:26N 28°10' W 015°24'0 0.0
2018-May-21 18:59N 28°10' W 015°24'0 0.0
2018-May-21 18:29N 28°10' W 015°24'0 0.0
2018-May-21 17:59N 28°10' W 015°24'0 0.0
2018-May-21 17:29N 28°10' W 015°24'0 0.0
2018-May-21 16:59N 28°10' W 015°24'0 0.0
2018-May-21 16:29N 28°10' W 015°24'0 0.0
2018-May-21 15:59N 28°10' W 015°24'0 0.0
2018-May-21 15:29N 28°10' W 015°24'0 0.0
2018-May-21 14:59N 28°10' W 015°24'0 0.0
2018-May-21 14:29N 28°10' W 015°24'0 0.0
2018-May-21 13:59N 28°10' W 015°24'0 0.0
2018-May-21 13:29N 28°10' W 015°24'0 0.0
2018-May-21 12:59N 28°10' W 015°24'0 0.0
2018-May-21 12:20N 28°10' W 015°24'0 0.0
2018-May-21 11:47N 28°10' W 015°24'0 0.0
2018-May-21 11:23N 28°10' W 015°24'0 0.0
2018-May-21 10:53N 28°10' W 015°24'0 0.0
2018-May-21 10:08N 28°10' W 015°24'0 0.0
2018-May-21 09:53N 28°10' W 015°24'0 0.0
2018-May-21 09:23N 28°10' W 015°24'0 0.0
2018-May-21 08:53N 28°10' W 015°24'0 0.0
2018-May-21 08:23N 28°10' W 015°24'0 0.0
2018-May-21 07:56N 28°10' W 015°24'0 0.0
2018-May-21 07:26N 28°10' W 015°24'0 0.0
2018-May-21 06:56N 28°10' W 015°24'0 0.0
2018-May-21 06:26N 28°10' W 015°24'0 0.0
2018-May-21 05:56N 28°10' W 015°24'0 0.0
2018-May-21 05:29N 28°10' W 015°24'0 0.0
2018-May-21 04:59N 28°10' W 015°24'0 0.0
2018-May-21 04:29N 28°10' W 015°24'0 0.0
2018-May-21 03:59N 28°10' W 015°24'0 0.0
2018-May-21 03:29N 28°10' W 015°24'0 0.0
2018-May-21 02:59N 28°10' W 015°24'0 0.0
2018-May-21 02:29N 28°10' W 015°24'0 0.0
2018-May-21 01:59N 28°10' W 015°24'0 0.0
2018-May-21 01:26N 28°10' W 015°24'0 0.0
2018-May-21 00:51N 28°10' W 015°24'0 0.0
2018-May-21 00:21N 28°10' W 015°24'0 0.0
2018-May-20 23:54N 28°10' W 015°24'0 0.0
2018-May-20 23:24N 28°10' W 015°24'0 0.0
2018-May-20 22:51N 28°10' W 015°24'0 0.0
2018-May-20 22:24N 28°10' W 015°24'0 0.0
2018-May-20 21:57N 28°10' W 015°24'0 0.0
2018-May-20 21:27N 28°10' W 015°24'0 0.0
2018-May-20 20:57N 28°10' W 015°24'0 0.0
2018-May-20 20:26N 28°10' W 015°24'0 0.0
2018-May-20 19:57N 28°10' W 015°24'0 0.0
2018-May-20 19:30N 28°10' W 015°24'0 0.0
2018-May-20 19:00N 28°10' W 015°24'0 0.0
2018-May-20 18:30N 28°10' W 015°24'0 0.0
2018-May-20 17:57N 28°10' W 015°24'0 0.0
2018-May-20 17:30N 28°10' W 015°24'0 0.0
2018-May-20 17:00N 28°10' W 015°24'0 0.0
2018-May-20 16:30N 28°10' W 015°24'0 0.0
2018-May-20 16:00N 28°10' W 015°24'0 0.0
2018-May-20 15:30N 28°10' W 015°24'0 0.0
2018-May-20 15:00N 28°10' W 015°24'0 0.0
2018-May-20 14:17N 28°10' W 015°24'0 0.0
2018-May-20 14:00N 28°10' W 015°24'0 0.0
2018-May-20 13:29N 28°10' W 015°24'0 0.0
2018-May-20 13:00N 28°10' W 015°24'0 0.0
2018-May-20 12:29N 28°10' W 015°24'0 0.0
2018-May-20 12:00N 28°10' W 015°24'0 0.0
2018-May-20 11:30N 28°10' W 015°24'0 0.0
2018-May-20 10:51N 28°10' W 015°24'0 0.0
2018-May-20 10:20N 28°10' W 015°24'0 0.0
2018-May-20 09:50N 28°10' W 015°24'0 0.0
2018-May-20 09:24N 28°10' W 015°24'0 0.0
2018-May-20 08:54N 28°10' W 015°24'0 0.0
2018-May-20 08:24N 28°10' W 015°24'0 0.0
2018-May-20 07:53N 28°10' W 015°24'0 0.0
2018-May-20 07:27N 28°10' W 015°24'0 0.0
2018-May-20 06:54N 28°10' W 015°24'0 0.0
2018-May-20 06:23N 28°10' W 015°24'0 0.0
2018-May-20 05:56N 28°10' W 015°24'0 0.0
2018-May-20 05:26N 28°10' W 015°24'0 0.0
2018-May-20 04:56N 28°10' W 015°24'0 0.0
2018-May-20 04:27N 28°10' W 015°24'0 0.0
2018-May-20 04:00N 28°10' W 015°24'0 0.0
2018-May-20 03:29N 28°10' W 015°24'0 0.0
2018-May-20 02:56N 28°10' W 015°24'0 0.0
2018-May-20 02:30N 28°10' W 015°24'0 0.0
2018-May-20 01:59N 28°10' W 015°24'0 0.0
2018-May-20 01:30N 28°10' W 015°24'0 0.0
2018-May-20 00:59N 28°10' W 015°24'0 0.0
2018-May-20 00:30N 28°10' W 015°24'0 0.0
2018-May-19 23:59N 28°10' W 015°24'0 0.0
2018-May-19 23:29N 28°10' W 015°24'0 0.0
2018-May-19 22:59N 28°10' W 015°24'0 0.0
2018-May-19 22:29N 28°10' W 015°24'0 0.0
2018-May-19 21:59N 28°10' W 015°24'0 0.0
2018-May-19 21:29N 28°10' W 015°24'0 0.0
2018-May-19 20:59N 28°10' W 015°24'0 0.0
2018-May-19 20:29N 28°10' W 015°24'0 0.0
2018-May-19 19:50N 28°10' W 015°24'0 0.0
2018-May-19 19:17N 28°10' W 015°24'0 0.0
2018-May-19 18:50N 28°10' W 015°24'0 0.0
2018-May-19 18:23N 28°10' W 015°24'0 0.0
2018-May-19 17:53N 28°10' W 015°24'0 0.0
2018-May-19 17:23N 28°10' W 015°24'0 0.0
2018-May-19 16:53N 28°10' W 015°24'0 0.0
2018-May-19 16:24N 28°10' W 015°24'1 2.4
2018-May-19 16:01N 28°09' W 015°24'816.4
2018-May-19 15:30N 28°07' W 015°15'917.0
2018-May-19 15:00N 28°06' W 015°05'917.3
2018-May-19 14:30N 28°05' W 014°55'917.3
2018-May-19 14:00N 28°04' W 014°45'9 0.8
2018-May-19 01:44N 28°01' W 014°35'415.7
2018-May-19 01:29N 28°02' W 014°40'816.1
2018-May-19 01:01N 28°03' W 014°48'816.1
2018-May-19 00:30N 28°04' W 014°57'816.0
2018-May-19 00:00N 28°05' W 015°06'815.7
2018-May-18 23:30N 28°06' W 015°15'713.7
2018-May-18 23:00N 28°09' W 015°22'2 3.5
2018-May-18 22:28N 28°10' W 015°24'0 0.0
2018-May-18 21:49N 28°10' W 015°24'0 0.0
2018-May-18 21:19N 28°10' W 015°24'0 0.0
2018-May-18 20:52N 28°10' W 015°24'0 0.0
2018-May-18 20:22N 28°10' W 015°24'0 0.0
2018-May-18 19:52N 28°10' W 015°24'0 0.0
2018-May-18 19:28N 28°10' W 015°24'0 0.0
2018-May-18 19:00N 28°10' W 015°24'0 0.0
2018-May-18 18:30N 28°10' W 015°24'0 0.0
2018-May-18 18:00N 28°10' W 015°24'0 0.0
2018-May-18 17:30N 28°10' W 015°24'0 0.0
2018-May-18 17:00N 28°10' W 015°24'0 0.0
2018-May-18 16:30N 28°10' W 015°24'1 1.2
2018-May-18 16:00N 28°09' W 015°24'815.4
2018-May-18 15:30N 28°08' W 015°15'917.4
2018-May-18 15:00N 28°06' W 015°06'917.4
2018-May-18 14:30N 28°05' W 014°56'917.4
2018-May-18 14:00N 28°04' W 014°46'6 0.2
2018-May-17 01:27N 28°02' W 014°39'716.5
2018-May-17 01:00N 28°03' W 014°47'816.0
2018-May-17 00:30N 28°04' W 014°56'816.2
2018-May-17 00:00N 28°05' W 015°05'816.2
2018-May-16 23:30N 28°07' W 015°14'816.0
2018-May-16 23:00N 28°09' W 015°23'1 2.2
2018-May-16 22:30N 28°10' W 015°24'0 0.0
2018-May-16 21:59N 28°10' W 015°24'0 0.0
2018-May-16 21:29N 28°10' W 015°24'0 0.0
2018-May-16 21:00N 28°10' W 015°24'0 0.0
2018-May-16 20:29N 28°10' W 015°24'0 0.0
2018-May-16 20:00N 28°10' W 015°24'0 0.0
2018-May-16 19:26N 28°10' W 015°24'0 0.0
2018-May-16 18:59N 28°10' W 015°24'0 0.0
2018-May-16 18:30N 28°10' W 015°24'0 0.0
2018-May-16 18:00N 28°10' W 015°24'0 0.0
2018-May-16 17:30N 28°10' W 015°24'0 0.0
2018-May-16 16:59N 28°10' W 015°24'0 0.0
2018-May-16 16:26N 28°10' W 015°24'2 3.7
2018-May-16 16:00N 28°09' W 015°23'816.9
2018-May-16 15:30N 28°07' W 015°13'917.0
2018-May-16 15:00N 28°06' W 015°04'917.1
2018-May-16 14:30N 28°05' W 014°54'816.9
2018-May-16 14:00N 28°03' W 014°45'916.9
2018-May-16 13:30N 28°02' W 014°35'2 0.2
2018-May-16 01:47N 28°01' W 014°33'416.1
2018-May-16 01:30N 28°01' W 014°38'816.3
2018-May-16 01:00N 28°03' W 014°47'815.7
2018-May-16 00:30N 28°04' W 014°56'816.1
2018-May-16 00:01N 28°05' W 015°05'816.1
2018-May-15 23:31N 28°07' W 015°14'816.1
2018-May-15 23:00N 28°09' W 015°23'1 2.9
2018-May-15 22:30N 28°10' W 015°24'0 0.0
2018-May-15 21:59N 28°10' W 015°24'0 0.0
2018-May-15 21:22N 28°10' W 015°24'0 0.0
2018-May-15 20:49N 28°10' W 015°24'0 0.0
2018-May-15 20:25N 28°10' W 015°24'0 0.0
2018-May-15 20:00N 28°10' W 015°24'0 0.0
2018-May-15 19:30N 28°10' W 015°24'0 0.0
2018-May-15 19:00N 28°10' W 015°24'0 0.0
2018-May-15 18:30N 28°10' W 015°24'0 0.0
2018-May-15 18:00N 28°10' W 015°24'0 0.0
2018-May-15 17:30N 28°10' W 015°24'0 0.0
2018-May-15 17:00N 28°10' W 015°24'0 0.0
2018-May-15 16:30N 28°10' W 015°24'1 1.8
2018-May-15 16:00N 28°09' W 015°24'816.7
2018-May-15 15:30N 28°07' W 015°14'917.3
2018-May-15 15:00N 28°06' W 015°05'917.5
2018-May-15 14:31N 28°05' W 014°55'917.1
2018-May-15 14:00N 28°04' W 014°45'917.3
2018-May-15 13:30N 28°02' W 014°36'2416.9
2018-May-15 12:06N 28°07' W 014°09'24 2.4
2018-May-15 02:09N 28°01' W 014°35'215.9
2018-May-15 02:00N 28°01' W 014°38'816.2
2018-May-15 01:30N 28°03' W 014°47'815.9
2018-May-15 01:01N 28°04' W 014°56'815.9
2018-May-15 00:30N 28°06' W 015°04'713.5
2018-May-15 00:00N 28°07' W 015°12'612.5
2018-May-14 23:31N 28°09' W 015°19'4 8.4
2018-May-14 23:01N 28°09' W 015°24'1 1.7
2018-May-14 22:30N 28°10' W 015°24'0 0.0
2018-May-14 22:00N 28°10' W 015°24'0 0.0
2018-May-14 21:30N 28°10' W 015°24'0 0.0
2018-May-14 21:00N 28°10' W 015°24'0 0.0
2018-May-14 20:30N 28°10' W 015°24'0 0.0
2018-May-14 20:00N 28°10' W 015°24'0 0.0
2018-May-14 19:30N 28°10' W 015°24'0 0.0
2018-May-14 19:00N 28°10' W 015°24'0 0.0
2018-May-14 18:30N 28°10' W 015°24'0 0.0
2018-May-14 18:00N 28°10' W 015°24'0 0.0
2018-May-14 17:30N 28°10' W 015°24'0 0.0
2018-May-14 17:00N 28°10' W 015°24'0 0.0
2018-May-14 16:30N 28°10' W 015°24'0 0.0
2018-May-14 16:00N 28°10' W 015°24'0 0.0
2018-May-14 15:30N 28°10' W 015°24'0 0.0
2018-May-14 15:00N 28°10' W 015°24'0 0.0
2018-May-14 14:30N 28°10' W 015°24'  
Track history (hours):
 
Tides and Currents Weather Stations Pressure Air Temp Water Temp Dewpoint Dewpoint Depression Visibility Wind Speed Wind Dir Waves Ship Positions

Al Andalus Express

Last reported at 2018-May-24 14:00 UTC. Time now 2018-May-24 14:07 UTC.
Position N 28°02' W 014°43'.

Length 160 m; draft 5.2 m.

Type: Ship (hazmat cat D). MMSI: 209011000.

Date/timePositionNaut miles runAvg speedWind from/ knotsBaromVisibWave heightAir tempDewpointWater temp
2018-May-24 14:00N 28°02' W 014°43'816.6
2018-May-24 13:30N 28°00' W 014°34'25 2.4
2018-May-24 03:11N 28°08' W 014°07'1616.0
2018-May-24 02:13N 28°01' W 014°23'416.6
2018-May-24 01:58N 28°01' W 014°27'816.9
2018-May-24 01:30N 28°01' W 014°36'816.7
2018-May-24 01:00N 28°02' W 014°46'816.7
2018-May-24 00:30N 28°04' W 014°55'816.5
2018-May-24 00:00N 28°05' W 015°04'816.4
2018-May-23 23:30N 28°07' W 015°13'816.5
2018-May-23 23:00N 28°09' W 015°22'2 2.8
2018-May-23 22:23N 28°10' W 015°24'0 0.0
2018-May-23 21:59N 28°10' W 015°24'0 0.0
2018-May-23 21:30N 28°10' W 015°24'0 0.0
2018-May-23 21:00N 28°10' W 015°24'0 0.0
2018-May-23 20:30N 28°10' W 015°24'0 0.0
2018-May-23 20:00N 28°10' W 015°24'0 0.0
2018-May-23 19:30N 28°10' W 015°24'0 0.0
2018-May-23 19:00N 28°10' W 015°24'0 0.0
2018-May-23 18:30N 28°10' W 015°24'0 0.0
2018-May-23 18:00N 28°10' W 015°24'0 0.0
2018-May-23 17:30N 28°10' W 015°24'0 0.0
2018-May-23 17:00N 28°10' W 015°24'0 0.0
2018-May-23 16:30N 28°10' W 015°24'4 8.8
2018-May-23 16:00N 28°08' W 015°20'816.3
2018-May-23 15:30N 28°06' W 015°11'816.7
2018-May-23 15:00N 28°04' W 015°01'816.9
2018-May-23 14:30N 28°03' W 014°52'917.1
2018-May-23 14:00N 28°02' W 014°42'816.9
2018-May-23 13:30N 28°00' W 014°33'917.1
2018-May-23 12:59N 28°01' W 014°23'1017.4
2018-May-23 12:24N 28°04' W 014°12'717.2
2018-May-23 12:00N 28°07' W 014°05'35 3.2
2018-May-23 01:08N 28°02' W 014°45'216.3
2018-May-23 01:00N 28°02' W 014°47'816.7
2018-May-23 00:30N 28°04' W 014°56'816.5
2018-May-23 00:00N 28°05' W 015°06'816.6
2018-May-22 23:30N 28°07' W 015°15'815.7
2018-May-22 23:01N 28°09' W 015°23'1 1.9
2018-May-22 22:30N 28°10' W 015°24'0 0.0
2018-May-22 21:57N 28°10' W 015°24'0 0.0
2018-May-22 21:28N 28°10' W 015°24'0 0.0
2018-May-22 20:58N 28°10' W 015°24'0 0.0
2018-May-22 20:28N 28°10' W 015°24'0 0.0
2018-May-22 19:58N 28°10' W 015°24'0 0.0
2018-May-22 19:28N 28°10' W 015°24'0 0.0
2018-May-22 18:58N 28°10' W 015°24'0 0.0
2018-May-22 18:19N 28°10' W 015°24'0 0.0
2018-May-22 17:58N 28°10' W 015°24'0 0.0
2018-May-22 17:28N 28°10' W 015°24'0 0.0
2018-May-22 16:46N 28°10' W 015°24'0 0.1
2018-May-22 16:30N 28°10' W 015°24'3 5.6
2018-May-22 16:00N 28°08' W 015°22'816.9
2018-May-22 15:30N 28°06' W 015°12'917.2
2018-May-22 15:00N 28°04' W 015°03'917.4
2018-May-22 14:30N 28°03' W 014°53'917.6
2018-May-22 14:00N 28°02' W 014°43'5 0.4
2018-May-22 02:09N 28°01' W 014°37'316.6
2018-May-22 01:59N 28°02' W 014°40'816.6
2018-May-22 01:30N 28°03' W 014°49'816.3
2018-May-22 01:00N 28°05' W 014°58'510.1
2018-May-22 00:30N 28°06' W 015°04'5 9.7
2018-May-22 00:00N 28°06' W 015°09'715.0
2018-May-21 23:31N 28°08' W 015°17'610.6
2018-May-21 22:56N 28°10' W 015°24'0 0.0
2018-May-21 22:26N 28°10' W 015°24'0 0.0
2018-May-21 21:56N 28°10' W 015°24'0 0.0
2018-May-21 21:26N 28°10' W 015°24'0 0.0
2018-May-21 20:59N 28°10' W 015°24'0 0.0
2018-May-21 20:29N 28°10' W 015°24'0 0.0
2018-May-21 19:59N 28°10' W 015°24'0 0.0
2018-May-21 19:26N 28°10' W 015°24'0 0.0
2018-May-21 18:59N 28°10' W 015°24'0 0.0
2018-May-21 18:29N 28°10' W 015°24'0 0.0
2018-May-21 17:59N 28°10' W 015°24'0 0.0
2018-May-21 17:29N 28°10' W 015°24'0 0.0
2018-May-21 16:59N 28°10' W 015°24'0 0.0
2018-May-21 16:29N 28°10' W 015°24'0 0.0
2018-May-21 15:59N 28°10' W 015°24'0 0.0
2018-May-21 15:29N 28°10' W 015°24'0 0.0
2018-May-21 14:59N 28°10' W 015°24'0 0.0
2018-May-21 14:29N 28°10' W 015°24'0 0.0
2018-May-21 13:59N 28°10' W 015°24'0 0.0
2018-May-21 13:29N 28°10' W 015°24'0 0.0
2018-May-21 12:59N 28°10' W 015°24'0 0.0
2018-May-21 12:20N 28°10' W 015°24'0 0.0
2018-May-21 11:47N 28°10' W 015°24'0 0.0
2018-May-21 11:23N 28°10' W 015°24'0 0.0
2018-May-21 10:53N 28°10' W 015°24'0 0.0
2018-May-21 10:08N 28°10' W 015°24'0 0.0
2018-May-21 09:53N 28°10' W 015°24'0 0.0
2018-May-21 09:23N 28°10' W 015°24'0 0.0
2018-May-21 08:53N 28°10' W 015°24'0 0.0
2018-May-21 08:23N 28°10' W 015°24'0 0.0
2018-May-21 07:56N 28°10' W 015°24'0 0.0
2018-May-21 07:26N 28°10' W 015°24'0 0.0
2018-May-21 06:56N 28°10' W 015°24'0 0.0
2018-May-21 06:26N 28°10' W 015°24'0 0.0
2018-May-21 05:56N 28°10' W 015°24'0 0.0
2018-May-21 05:29N 28°10' W 015°24'0 0.0
2018-May-21 04:59N 28°10' W 015°24'0 0.0
2018-May-21 04:29N 28°10' W 015°24'0 0.0
2018-May-21 03:59N 28°10' W 015°24'0 0.0
2018-May-21 03:29N 28°10' W 015°24'0 0.0
2018-May-21 02:59N 28°10' W 015°24'0 0.0
2018-May-21 02:29N 28°10' W 015°24'0 0.0
2018-May-21 01:59N 28°10' W 015°24'0 0.0
2018-May-21 01:26N 28°10' W 015°24'0 0.0
2018-May-21 00:51N 28°10' W 015°24'0 0.0
2018-May-21 00:21N 28°10' W 015°24'0 0.0
2018-May-20 23:54N 28°10' W 015°24'0 0.0
2018-May-20 23:24N 28°10' W 015°24'0 0.0
2018-May-20 22:51N 28°10' W 015°24'0 0.0
2018-May-20 22:24N 28°10' W 015°24'0 0.0
2018-May-20 21:57N 28°10' W 015°24'0 0.0
2018-May-20 21:27N 28°10' W 015°24'0 0.0
2018-May-20 20:57N 28°10' W 015°24'0 0.0
2018-May-20 20:26N 28°10' W 015°24'0 0.0
2018-May-20 19:57N 28°10' W 015°24'0 0.0
2018-May-20 19:30N 28°10' W 015°24'0 0.0
2018-May-20 19:00N 28°10' W 015°24'0 0.0
2018-May-20 18:30N 28°10' W 015°24'0 0.0
2018-May-20 17:57N 28°10' W 015°24'0 0.0
2018-May-20 17:30N 28°10' W 015°24'0 0.0
2018-May-20 17:00N 28°10' W 015°24'0 0.0
2018-May-20 16:30N 28°10' W 015°24'0 0.0
2018-May-20 16:00N 28°10' W 015°24'0 0.0
2018-May-20 15:30N 28°10' W 015°24'0 0.0
2018-May-20 15:00N 28°10' W 015°24'0 0.0
2018-May-20 14:17N 28°10' W 015°24'0 0.0
2018-May-20 14:00N 28°10' W 015°24'0 0.0
2018-May-20 13:29N 28°10' W 015°24'0 0.0
2018-May-20 13:00N 28°10' W 015°24'0 0.0
2018-May-20 12:29N 28°10' W 015°24'0 0.0
2018-May-20 12:00N 28°10' W 015°24'0 0.0
2018-May-20 11:30N 28°10' W 015°24'0 0.0
2018-May-20 10:51N 28°10' W 015°24'0 0.0
2018-May-20 10:20N 28°10' W 015°24'0 0.0
2018-May-20 09:50N 28°10' W 015°24'0 0.0
2018-May-20 09:24N 28°10' W 015°24'0 0.0
2018-May-20 08:54N 28°10' W 015°24'0 0.0
2018-May-20 08:24N 28°10' W 015°24'0 0.0
2018-May-20 07:53N 28°10' W 015°24'0 0.0
2018-May-20 07:27N 28°10' W 015°24'0 0.0
2018-May-20 06:54N 28°10' W 015°24'0 0.0
2018-May-20 06:23N 28°10' W 015°24'0 0.0
2018-May-20 05:56N 28°10' W 015°24'0 0.0
2018-May-20 05:26N 28°10' W 015°24'0 0.0
2018-May-20 04:56N 28°10' W 015°24'0 0.0
2018-May-20 04:27N 28°10' W 015°24'0 0.0
2018-May-20 04:00N 28°10' W 015°24'0 0.0
2018-May-20 03:29N 28°10' W 015°24'0 0.0
2018-May-20 02:56N 28°10' W 015°24'0 0.0
2018-May-20 02:30N 28°10' W 015°24'0 0.0
2018-May-20 01:59N 28°10' W 015°24'0 0.0
2018-May-20 01:30N 28°10' W 015°24'0 0.0
2018-May-20 00:59N 28°10' W 015°24'0 0.0
2018-May-20 00:30N 28°10' W 015°24'0 0.0
2018-May-19 23:59N 28°10' W 015°24'0 0.0
2018-May-19 23:29N 28°10' W 015°24'0 0.0
2018-May-19 22:59N 28°10' W 015°24'0 0.0
2018-May-19 22:29N 28°10' W 015°24'0 0.0
2018-May-19 21:59N 28°10' W 015°24'0 0.0
2018-May-19 21:29N 28°10' W 015°24'0 0.0
2018-May-19 20:59N 28°10' W 015°24'0 0.0
2018-May-19 20:29N 28°10' W 015°24'0 0.0
2018-May-19 19:50N 28°10' W 015°24'0 0.0
2018-May-19 19:17N 28°10' W 015°24'0 0.0
2018-May-19 18:50N 28°10' W 015°24'0 0.0
2018-May-19 18:23N 28°10' W 015°24'0 0.0
2018-May-19 17:53N 28°10' W 015°24'0 0.0
2018-May-19 17:23N 28°10' W 015°24'0 0.0
2018-May-19 16:53N 28°10' W 015°24'0 0.0
2018-May-19 16:24N 28°10' W 015°24'1 2.4
2018-May-19 16:01N 28°09' W 015°24'816.4
2018-May-19 15:30N 28°07' W 015°15'917.0
2018-May-19 15:00N 28°06' W 015°05'917.3
2018-May-19 14:30N 28°05' W 014°55'917.3
2018-May-19 14:00N 28°04' W 014°45'9 0.8
2018-May-19 01:44N 28°01' W 014°35'415.7
2018-May-19 01:29N 28°02' W 014°40'816.1
2018-May-19 01:01N 28°03' W 014°48'816.1
2018-May-19 00:30N 28°04' W 014°57'816.0
2018-May-19 00:00N 28°05' W 015°06'815.7
2018-May-18 23:30N 28°06' W 015°15'713.7
2018-May-18 23:00N 28°09' W 015°22'2 3.5
2018-May-18 22:28N 28°10' W 015°24'0 0.0
2018-May-18 21:49N 28°10' W 015°24'0 0.0
2018-May-18 21:19N 28°10' W 015°24'0 0.0
2018-May-18 20:52N 28°10' W 015°24'0 0.0
2018-May-18 20:22N 28°10' W 015°24'0 0.0
2018-May-18 19:52N 28°10' W 015°24'0 0.0
2018-May-18 19:28N 28°10' W 015°24'0 0.0
2018-May-18 19:00N 28°10' W 015°24'0 0.0
2018-May-18 18:30N 28°10' W 015°24'0 0.0
2018-May-18 18:00N 28°10' W 015°24'0 0.0
2018-May-18 17:30N 28°10' W 015°24'0 0.0
2018-May-18 17:00N 28°10' W 015°24'0 0.0
2018-May-18 16:30N 28°10' W 015°24'1 1.2
2018-May-18 16:00N 28°09' W 015°24'815.4
2018-May-18 15:30N 28°08' W 015°15'917.4
2018-May-18 15:00N 28°06' W 015°06'917.4
2018-May-18 14:30N 28°05' W 014°56'917.4
2018-May-18 14:00N 28°04' W 014°46'6 0.2
2018-May-17 01:27N 28°02' W 014°39'716.5
2018-May-17 01:00N 28°03' W 014°47'816.0
2018-May-17 00:30N 28°04' W 014°56'816.2
2018-May-17 00:00N 28°05' W 015°05'816.2
2018-May-16 23:30N 28°07' W 015°14'816.0
2018-May-16 23:00N 28°09' W 015°23'1 2.2
2018-May-16 22:30N 28°10' W 015°24'0 0.0
2018-May-16 21:59N 28°10' W 015°24'0 0.0
2018-May-16 21:29N 28°10' W 015°24'0 0.0
2018-May-16 21:00N 28°10' W 015°24'0 0.0
2018-May-16 20:29N 28°10' W 015°24'0 0.0
2018-May-16 20:00N 28°10' W 015°24'0 0.0
2018-May-16 19:26N 28°10' W 015°24'0 0.0
2018-May-16 18:59N 28°10' W 015°24'0 0.0
2018-May-16 18:30N 28°10' W 015°24'0 0.0
2018-May-16 18:00N 28°10' W 015°24'0 0.0
2018-May-16 17:30N 28°10' W 015°24'0 0.0
2018-May-16 16:59N 28°10' W 015°24'0 0.0
2018-May-16 16:26N 28°10' W 015°24'2 3.7
2018-May-16 16:00N 28°09' W 015°23'816.9
2018-May-16 15:30N 28°07' W 015°13'917.0
2018-May-16 15:00N 28°06' W 015°04'917.1
2018-May-16 14:30N 28°05' W 014°54'816.9
2018-May-16 14:00N 28°03' W 014°45'916.9
2018-May-16 13:30N 28°02' W 014°35'2 0.2
2018-May-16 01:47N 28°01' W 014°33'416.1
2018-May-16 01:30N 28°01' W 014°38'816.3
2018-May-16 01:00N 28°03' W 014°47'815.7
2018-May-16 00:30N 28°04' W 014°56'816.1
2018-May-16 00:01N 28°05' W 015°05'816.1
2018-May-15 23:31N 28°07' W 015°14'816.1
2018-May-15 23:00N 28°09' W 015°23'1 2.9
2018-May-15 22:30N 28°10' W 015°24'0 0.0
2018-May-15 21:59N 28°10' W 015°24'0 0.0
2018-May-15 21:22N 28°10' W 015°24'0 0.0
2018-May-15 20:49N 28°10' W 015°24'0 0.0
2018-May-15 20:25N 28°10' W 015°24'0 0.0
2018-May-15 20:00N 28°10' W 015°24'0 0.0
2018-May-15 19:30N 28°10' W 015°24'0 0.0
2018-May-15 19:00N 28°10' W 015°24'0 0.0
2018-May-15 18:30N 28°10' W 015°24'0 0.0
2018-May-15 18:00N 28°10' W 015°24'0 0.0
2018-May-15 17:30N 28°10' W 015°24'0 0.0
2018-May-15 17:00N 28°10' W 015°24'0 0.0
2018-May-15 16:30N 28°10' W 015°24'1 1.8
2018-May-15 16:00N 28°09' W 015°24'816.7
2018-May-15 15:30N 28°07' W 015°14'917.3
2018-May-15 15:00N 28°06' W 015°05'917.5
2018-May-15 14:31N 28°05' W 014°55'917.1
2018-May-15 14:00N 28°04' W 014°45'917.3
2018-May-15 13:30N 28°02' W 014°36'2416.9
2018-May-15 12:06N 28°07' W 014°09'24 2.4
2018-May-15 02:09N 28°01' W 014°35'215.9
2018-May-15 02:00N 28°01' W 014°38'816.2
2018-May-15 01:30N 28°03' W 014°47'815.9
2018-May-15 01:01N 28°04' W 014°56'815.9
2018-May-15 00:30N 28°06' W 015°04'713.5
2018-May-15 00:00N 28°07' W 015°12'612.5
2018-May-14 23:31N 28°09' W 015°19'4 8.4
2018-May-14 23:01N 28°09' W 015°24'1 1.7
2018-May-14 22:30N 28°10' W 015°24'0 0.0
2018-May-14 22:00N 28°10' W 015°24'0 0.0
2018-May-14 21:30N 28°10' W 015°24'0 0.0
2018-May-14 21:00N 28°10' W 015°24'0 0.0
2018-May-14 20:30N 28°10' W 015°24'0 0.0
2018-May-14 20:00N 28°10' W 015°24'0 0.0
2018-May-14 19:30N 28°10' W 015°24'0 0.0
2018-May-14 19:00N 28°10' W 015°24'0 0.0
2018-May-14 18:30N 28°10' W 015°24'0 0.0
2018-May-14 18:00N 28°10' W 015°24'0 0.0
2018-May-14 17:30N 28°10' W 015°24'0 0.0
2018-May-14 17:00N 28°10' W 015°24'0 0.0
2018-May-14 16:30N 28°10' W 015°24'0 0.0
2018-May-14 16:00N 28°10' W 015°24'0 0.0
2018-May-14 15:30N 28°10' W 015°24'0 0.0
2018-May-14 15:00N 28°10' W 015°24'0 0.0
2018-May-14 14:30N 28°10' W 015°24'  

Dump ship's entire track history